Terminal Aerodrome Forecast
Issued by NWS

Home | Current Version | Previous Version | Text Only | Print | Product List | Glossary On
Versions: 1 2 3 4 5 6 7 8 9 10 11 12 13 14 15 16 17 18
000
FTUS41 KALY 010544
TAFPSF
TAF
KPSF 010544Z 0106/0206 VRB03KT P6SM SCT060 BKN100
      TEMPO 0108/0111 4SM BR
     FM011200 24006KT P6SM SCT050 BKN100
     FM011600 27010G18KT P6SM VCSH BKN050 BKN100
     FM012200 28012G20KT P6SM SCT050 SCT100
     FM020100 29010KT P6SM SCT050 SCT100
     FM020400 27007KT P6SM SCT050=

USA.gov is the U.S. government's official web portal to all federal, state and local government web resources and services.